createdAt,value
2023-03-23T16:04:38.308Z,98649.48
2023-03-23T16:14:44.051Z,98654.02
2023-03-23T16:24:50.372Z,98655.72
2023-03-23T16:34:55.964Z,98669.48
2023-03-23T16:45:02.136Z,98666.99
2023-03-23T16:55:10.240Z,98666.16
2023-03-23T17:05:17.774Z,98662.95
2023-03-23T17:15:25.792Z,98674.57
2023-03-23T17:25:32.090Z,98680.94
2023-03-23T17:35:38.075Z,98697.31
2023-03-23T17:45:47.028Z,98701.40
2023-03-23T17:55:53.465Z,98709.88
2023-03-23T18:06:03.620Z,98712.95
2023-03-23T18:16:10.826Z,98713.53
2023-03-23T18:26:17.374Z,98716.48
2023-03-23T18:36:25.676Z,98727.27
2023-03-23T18:46:32.336Z,98743.73
2023-03-23T18:56:38.644Z,98736.72
2023-03-23T19:06:44.792Z,98734.82
2023-03-23T19:16:50.642Z,98731.23
2023-03-23T19:26:57.260Z,98739.50
2023-03-23T19:37:08.834Z,98740.46
2023-03-23T19:47:17.242Z,98732.89
2023-03-23T19:57:23.533Z,98749.25
2023-03-23T20:07:29.969Z,98755.34
2023-03-23T20:17:36.397Z,98750.46
2023-03-23T20:27:43.734Z,98739.52
2023-03-23T20:37:50.700Z,98742.14
2023-03-23T20:47:56.417Z,98745.27
2023-03-23T20:58:02.577Z,98749.19
2023-03-23T21:08:08.462Z,98764.11
2023-03-23T21:18:14.738Z,98759.53
2023-03-23T21:28:20.581Z,98758.80
2023-03-23T21:38:27.969Z,98754.45
2023-03-23T21:48:34.165Z,98757.73
2023-03-23T21:58:40.720Z,98756.83
2023-03-23T22:08:47.531Z,98769.73
2023-03-23T22:18:55.242Z,98773.93
2023-03-23T22:29:02.322Z,98770.13
2023-03-23T22:39:09.109Z,98769.17
2023-03-23T22:49:15.152Z,98769.55
2023-03-23T22:59:21.578Z,98772.55
2023-03-23T23:09:27.517Z,98774.85
2023-03-23T23:19:33.542Z,98786.84
2023-03-23T23:29:40.696Z,98792.05
2023-03-23T23:39:46.387Z,98794.45
2023-03-23T23:49:52.366Z,98788.96
2023-03-23T23:59:58.199Z,98780.63
